Skagway, AK

8:29 PM AKDT on April 26, 2015 (GMT -0800)
HADS | | Change Station
CLOSE
Current Station
Personal Weather Station
Location: Skagway, AK
Elevation: 539 ft
Nearby Weather Stations

Elev 539 ft 59.51 °N, 135.34 °W | Updated 1 hour ago

Overcast
Overcast
50 °F
Feels Like 50 °F
N
Wind Variable Wind from North
Gusts 0.0 mph

Today
High -- | Low -- °F
--% Chance of Precip.
Yesterday
High -- | Low -- °F
Precip. -- in
5:15 AM 8:44 PM
First Quarter, 61% visible
Pressure 29.71 in
Visibility 10.0 miles
Clouds Scattered Clouds 2100 ft
Mostly Cloudy 4300 ft
Overcast 5500 ft
Dew Point Not available.
Humidity Not available.
Rainfall in
Snow Depth Not available.
UV 0 out of 12
Pollen Not available.
Air Quality Not available.
Flu Activity Sporadic
SPECI PAGY 270406Z AUTO 20010KT 10SM -RA SCT021 BKN043 OVC055 08/04 A2971 RMK AO2 P0000 T00830044 TSNO

More Conditions Fewer Conditions

Pressure 29.71 in
Visibility 10.0 miles
Clouds Scattered Clouds 2100 ft
Mostly Cloudy 4300 ft
Overcast 5500 ft
Dew Point Not available.
Humidity Not available.
Rainfall in
Snow Depth Not available.
UV 0 out of 12
Pollen Not available.
Air Quality Not available.
Flu Activity Sporadic
SPECI PAGY 270406Z AUTO 20010KT 10SM -RA SCT021 BKN043 OVC055 08/04 A2971 RMK AO2 P0000 T00830044 TSNO

More Conditions Fewer Conditions

10-Day Weather Forecast

Almanac

Astronomy

Apr. 26, 2015 Rise Set
Actual Time
Civil Twilight
Nautical Twilight
Astronomical Twilight
Moon
Length of Visible Light
Length of Day
Tomorrow will be .
, % of the Moon is Illuminated

Today's Extremes

State Highs State Lows

Community

WunderPhotos

Upload Photos

1,817,262 photos uploaded!

WunderBlogs® & News

Nearby

Air Quality

  Air Quality AQ Index Pollutant
Not available.

Snow Depth

Station Depth Elevation

Earthquake Activity

City Distance Mag. Time & Date
Minimum magnitude displayed is 2.5.

Coastal Water Temperatures

Place Temperature

Stations

Nearby Weather Stations

Station Location Temp. Windchill Dew Point Humidity Wind Precip. Elev Updated Type